Accueil
METAR-TAF:

METAR-TAF

Aéroports :

Brewster Field

Holdrege, Nebraska, États-Unis

latitude: 40-27N, longitude: 099-20W, altitude: 704 m

Observation

Le bulletin a été fait il y a 33 minutes, à 02:15 UTC
Vent 3 kt de est/sud-est
Température 22°C
Humidité 83%
Pression 1020 hPa
Visibilité: 16.1 km
Ciel clair

METAR: KHDE 220215Z AUTO 11003KT 10SM CLR 22/19 A3013 RMK AO2 T02150186

Heure: 21:48 (02:48 UTC)


TAF: absent

Observations et prévisions météorologiques de plus de 4000 aéroports (messages METAR et TAF).

Les stations disponibles sont représentées par des disques jaunes et rouges sur la carte.

Passer la souris dessus pour voir le nom de la station.

Cliquer dessus pour voir les observations et prévisions météorologiques.

Pour changer de carte: cliquez sur les boutons verts avec une croix noire pour zoomer, sur le bouton vert avec un tiret pour effectuer un zoom arrière, ou sur les flèches vertes pour les cartes adjacentes.


METAR-TAF: